createdAt,value
2022-10-18T00:00:18.707Z,88.81
2022-10-18T00:01:18.684Z,89.73
2022-10-18T00:02:18.745Z,90.95
2022-10-18T00:03:18.662Z,91.66
2022-10-18T00:04:18.664Z,91.66
2022-10-18T00:05:18.651Z,91.05
2022-10-18T00:06:18.632Z,90.95
2022-10-18T00:07:18.621Z,90.34
2022-10-18T00:08:18.591Z,90.75
2022-10-18T00:09:18.591Z,90.44
2022-10-18T00:10:18.561Z,90.44
2022-10-18T00:11:18.551Z,90.55
2022-10-18T00:12:18.571Z,91.05
2022-10-18T00:13:18.547Z,90.44
2022-10-18T00:14:18.520Z,89.97
2022-10-18T00:15:18.499Z,89.67
2022-10-18T00:16:18.511Z,89.67
2022-10-18T00:17:18.470Z,89.36
2022-10-18T00:18:18.470Z,88.85
2022-10-18T00:19:18.461Z,88.45
2022-10-18T00:20:18.440Z,88.45
2022-10-18T00:21:18.441Z,88.65
2022-10-18T00:22:18.410Z,88.34
2022-10-18T00:23:18.403Z,88.34
2022-10-18T00:24:18.379Z,88.85
2022-10-18T00:25:18.359Z,89.57
2022-10-18T00:26:18.380Z,90.08
2022-10-18T00:27:18.339Z,89.57
2022-10-18T00:28:18.351Z,89.06
2022-10-18T00:29:18.310Z,90.08
2022-10-18T00:30:18.302Z,89.97
2022-10-18T00:31:18.280Z,89.77
2022-10-18T00:32:18.270Z,89.87
2022-10-18T00:33:18.269Z,91.09
2022-10-18T00:34:18.247Z,92.01
2022-10-18T00:35:18.230Z,92.22
2022-10-18T00:36:18.219Z,92.11
2022-10-18T00:37:18.210Z,92.32
2022-10-18T00:38:18.209Z,92.93
2022-10-18T00:39:18.208Z,93.33
2022-10-18T00:40:18.159Z,93.33
2022-10-18T00:41:18.149Z,92.83
2022-10-18T00:42:18.140Z,91.81
2022-10-18T00:43:18.137Z,91.61
2022-10-18T00:44:18.120Z,91.71
2022-10-18T00:45:18.097Z,91.91
2022-10-18T00:46:18.077Z,92.22
2022-10-18T00:47:18.077Z,92.32
2022-10-18T00:48:18.066Z,92.42
2022-10-18T00:49:18.043Z,92.42
2022-10-18T00:50:18.033Z,92.22
2022-10-18T00:51:18.018Z,91.71
2022-10-18T00:52:18.008Z,91.30
2022-10-18T00:53:18.000Z,90.63
2022-10-18T00:54:17.978Z,90.32
2022-10-18T00:55:17.968Z,89.81
2022-10-18T00:56:17.948Z,89.61
2022-10-18T00:57:17.939Z,89.30
2022-10-18T00:58:17.919Z,88.90
2022-10-18T00:59:18.012Z,88.69
2022-10-18T01:00:17.973Z,88.18
2022-10-18T01:01:17.980Z,87.77
2022-10-18T01:02:17.909Z,87.47
2022-10-18T01:03:17.878Z,87.26
2022-10-18T01:04:17.849Z,87.26
2022-10-18T01:05:17.839Z,87.67
2022-10-18T01:06:17.831Z,87.67
2022-10-18T01:07:17.820Z,87.67
2022-10-18T01:08:17.792Z,87.88
2022-10-18T01:09:17.779Z,88.28
2022-10-18T01:10:17.780Z,88.59
2022-10-18T01:11:17.750Z,88.49
2022-10-18T01:12:17.749Z,88.49
2022-10-18T01:13:19.876Z,88.59
2022-10-18T01:14:18.712Z,89.10
2022-10-18T01:15:17.691Z,89.87
2022-10-18T01:16:17.680Z,89.67
2022-10-18T01:17:17.680Z,89.57
2022-10-18T01:18:17.649Z,89.26
2022-10-18T01:19:17.650Z,88.96
2022-10-18T01:20:17.632Z,88.34
2022-10-18T01:21:17.619Z,88.24
2022-10-18T01:22:17.610Z,87.84
2022-10-18T01:23:17.589Z,87.32
2022-10-18T01:24:17.579Z,87.02
2022-10-18T01:25:17.559Z,86.82
2022-10-18T01:26:17.549Z,86.82
2022-10-18T01:27:17.552Z,86.61
2022-10-18T01:28:17.519Z,86.21
2022-10-18T01:29:17.517Z,86.10
2022-10-18T01:30:17.498Z,85.90
2022-10-18T01:31:17.487Z,86.10
2022-10-18T01:32:17.478Z,86.71
2022-10-18T01:33:17.461Z,87.02
2022-10-18T01:34:17.439Z,87.23
2022-10-18T01:35:17.441Z,87.02
2022-10-18T01:36:17.409Z,86.61
2022-10-18T01:37:17.411Z,86.41
2022-10-18T01:38:17.388Z,86.10
2022-10-18T01:39:17.385Z,85.80
2022-10-18T01:40:17.368Z,85.90
2022-10-18T01:41:17.358Z,86.21
2022-10-18T01:42:17.344Z,85.80
2022-10-18T01:43:17.348Z,85.80
2022-10-18T01:44:17.308Z,86.10
2022-10-18T01:45:17.299Z,86.21
2022-10-18T01:46:17.281Z,86.51
2022-10-18T01:47:17.278Z,86.82
2022-10-18T01:48:17.267Z,86.61
2022-10-18T01:49:17.248Z,86.51
2022-10-18T01:50:17.228Z,86.77
2022-10-18T01:51:17.256Z,87.38
2022-10-18T01:52:17.216Z,88.10
2022-10-18T01:53:17.192Z,89.53
2022-10-18T01:54:17.176Z,89.94
2022-10-18T01:55:17.161Z,89.53
2022-10-18T01:56:17.168Z,88.61
2022-10-18T01:57:17.148Z,87.90
2022-10-18T01:58:17.118Z,87.08
2022-10-18T01:59:17.118Z,87.08
2022-10-18T02:00:17.097Z,87.29
2022-10-18T02:01:17.089Z,88.10
2022-10-18T02:02:17.081Z,88.20
2022-10-18T02:03:17.065Z,88.20
2022-10-18T02:04:17.037Z,87.79
2022-10-18T02:05:17.050Z,88.40
2022-10-18T02:06:17.012Z,88.40
2022-10-18T02:07:17.016Z,87.90
2022-10-18T02:08:23.288Z,87.79
2022-10-18T02:09:17.999Z,87.29
2022-10-18T02:10:16.988Z,86.88
2022-10-18T02:11:16.966Z,86.47
2022-10-18T02:12:16.946Z,86.27
2022-10-18T02:13:16.927Z,85.96
2022-10-18T02:14:16.906Z,86.98
2022-10-18T02:15:16.906Z,87.59
2022-10-18T02:16:16.875Z,87.49
2022-10-18T02:17:16.888Z,88.00
2022-10-18T02:18:16.884Z,88.51
2022-10-18T02:19:16.871Z,88.81
2022-10-18T02:20:16.828Z,89.48
2022-10-18T02:21:16.825Z,89.79
2022-10-18T02:22:16.816Z,89.79
2022-10-18T02:23:16.795Z,90.09
2022-10-18T02:24:16.775Z,90.70
2022-10-18T02:25:16.790Z,91.01
2022-10-18T02:26:16.765Z,91.72
2022-10-18T02:27:16.755Z,92.13
2022-10-18T02:28:16.768Z,92.33
2022-10-18T02:29:16.714Z,92.44
2022-10-18T02:30:16.698Z,92.54
2022-10-18T02:31:16.695Z,92.03
2022-10-18T02:32:16.683Z,91.42
2022-10-18T02:33:16.660Z,90.81
2022-10-18T02:34:16.634Z,90.20
2022-10-18T02:35:16.662Z,89.99
2022-10-18T02:36:16.628Z,89.79
2022-10-18T02:37:16.649Z,89.79
2022-10-18T02:38:16.617Z,89.99
2022-10-18T02:39:16.594Z,90.30
2022-10-18T02:40:16.564Z,90.20
2022-10-18T02:41:16.559Z,90.20
2022-10-18T02:42:16.540Z,90.30
2022-10-18T02:43:16.536Z,90.09
2022-10-18T02:44:16.508Z,89.69
2022-10-18T02:45:16.495Z,88.98
2022-10-18T02:46:16.526Z,88.46
2022-10-18T02:47:16.465Z,88.16
2022-10-18T02:48:16.456Z,87.85
2022-10-18T02:49:16.445Z,87.85
2022-10-18T02:50:16.426Z,87.55
2022-10-18T02:51:16.444Z,87.29
2022-10-18T02:52:16.403Z,87.24
2022-10-18T02:53:16.394Z,86.98
2022-10-18T02:54:16.384Z,86.57
2022-10-18T02:55:16.423Z,86.27
2022-10-18T02:56:16.355Z,86.37
2022-10-18T02:57:16.365Z,85.86
2022-10-18T02:58:16.315Z,85.55
2022-10-18T02:59:16.305Z,85.45
2022-10-18T03:00:16.314Z,85.25
2022-10-18T03:01:16.592Z,85.41
2022-10-18T03:02:16.313Z,85.72
2022-10-18T03:03:16.305Z,86.43
2022-10-18T03:04:16.325Z,86.74
2022-10-18T03:05:16.237Z,86.94
2022-10-18T03:06:16.236Z,86.83
2022-10-18T03:07:16.226Z,86.74
2022-10-18T03:08:16.188Z,86.63
2022-10-18T03:09:16.177Z,86.43
2022-10-18T03:10:16.162Z,86.43
2022-10-18T03:11:16.168Z,86.43
2022-10-18T03:12:16.145Z,86.33
2022-10-18T03:13:16.192Z,86.33
2022-10-18T03:14:16.113Z,86.22
2022-10-18T03:15:16.099Z,86.02
2022-10-18T03:16:16.092Z,86.13
2022-10-18T03:17:16.064Z,86.74
2022-10-18T03:18:16.056Z,86.63
2022-10-18T03:19:16.044Z,86.22
2022-10-18T03:20:16.024Z,86.43
2022-10-18T03:21:16.025Z,86.59
2022-10-18T03:22:16.059Z,87.61
2022-10-18T03:23:15.994Z,88.53
2022-10-18T03:24:15.966Z,89.34
2022-10-18T03:25:15.955Z,89.34
2022-10-18T03:26:15.953Z,89.34
2022-10-18T03:27:15.932Z,89.14
2022-10-18T03:28:15.931Z,89.03
2022-10-18T03:29:15.910Z,89.64
2022-10-18T03:30:15.893Z,89.75
2022-10-18T03:31:15.905Z,89.75
2022-10-18T03:32:15.872Z,89.34
2022-10-18T03:33:15.855Z,88.93
2022-10-18T03:34:15.833Z,88.63
2022-10-18T03:35:15.843Z,89.44
2022-10-18T03:36:15.832Z,90.25
2022-10-18T03:37:15.793Z,90.25
2022-10-18T03:38:15.781Z,90.25
2022-10-18T03:39:15.772Z,89.61
2022-10-18T03:40:15.754Z,89.09
2022-10-18T03:41:15.754Z,89.30
2022-10-18T03:42:15.744Z,89.70
2022-10-18T03:43:15.722Z,90.42
2022-10-18T03:44:15.696Z,90.52
2022-10-18T03:45:15.713Z,91.13
2022-10-18T03:46:15.693Z,91.94
2022-10-18T03:47:15.665Z,92.45
2022-10-18T03:48:15.651Z,92.76
2022-10-18T03:49:15.654Z,92.76
2022-10-18T03:50:15.622Z,92.45
2022-10-18T03:51:15.624Z,92.04
2022-10-18T03:52:15.602Z,91.84
2022-10-18T03:53:15.589Z,91.53
2022-10-18T03:54:15.586Z,91.23
2022-10-18T03:55:15.553Z,91.13
2022-10-18T03:56:15.562Z,91.13
2022-10-18T03:57:15.523Z,91.23
2022-10-18T03:58:15.512Z,91.33
2022-10-18T03:59:15.542Z,91.33
2022-10-18T04:00:15.484Z,91.43
2022-10-18T04:01:15.534Z,91.43
2022-10-18T04:02:15.470Z,91.80
2022-10-18T04:03:15.453Z,91.90
2022-10-18T04:04:15.432Z,92.00
2022-10-18T04:05:15.424Z,92.10
2022-10-18T04:06:15.427Z,91.60
2022-10-18T04:07:15.404Z,91.19
2022-10-18T04:08:15.382Z,90.88
2022-10-18T04:09:15.376Z,90.78
2022-10-18T04:10:15.361Z,91.19
2022-10-18T04:11:15.332Z,91.39
2022-10-18T04:12:15.329Z,91.69
2022-10-18T04:13:15.313Z,91.69
2022-10-18T04:14:15.311Z,91.39
2022-10-18T04:15:15.301Z,91.39
2022-10-18T04:16:15.261Z,91.60
2022-10-18T04:17:15.266Z,90.99
2022-10-18T04:18:15.250Z,90.58
2022-10-18T04:19:15.230Z,90.68
2022-10-18T04:20:15.221Z,90.99
2022-10-18T04:21:15.210Z,91.09
2022-10-18T04:22:15.190Z,91.14
2022-10-18T04:23:15.181Z,91.05
2022-10-18T04:24:15.169Z,90.44
2022-10-18T04:25:15.162Z,89.97
2022-10-18T04:26:15.142Z,89.36
2022-10-18T04:27:15.129Z,89.01
2022-10-18T04:28:15.114Z,89.11
2022-10-18T04:29:15.105Z,89.92
2022-10-18T04:30:15.091Z,90.64
2022-10-18T04:31:15.069Z,91.05
2022-10-18T04:32:15.072Z,91.14
2022-10-18T04:33:15.042Z,91.05
2022-10-18T04:34:15.031Z,91.14
2022-10-18T04:35:15.028Z,91.14
2022-10-18T04:36:15.001Z,91.55
2022-10-18T04:37:15.000Z,91.65
2022-10-18T04:38:14.976Z,91.45
2022-10-18T04:39:14.973Z,91.25
2022-10-18T04:40:14.960Z,90.94
2022-10-18T04:41:14.932Z,90.74
2022-10-18T04:42:14.921Z,90.94
2022-10-18T04:43:14.912Z,91.75
2022-10-18T04:44:14.916Z,92.52
2022-10-18T04:45:14.892Z,93.13
2022-10-18T04:46:14.868Z,93.33
2022-10-18T04:47:14.866Z,93.28
2022-10-18T04:48:14.841Z,92.97
2022-10-18T04:49:14.828Z,92.72
2022-10-18T04:50:14.829Z,92.83
2022-10-18T04:51:14.828Z,92.16
2022-10-18T04:52:14.779Z,91.14
2022-10-18T04:53:14.781Z,90.80
2022-10-18T04:54:14.761Z,91.10
2022-10-18T04:55:14.749Z,91.30
2022-10-18T04:56:14.754Z,91.41
2022-10-18T04:57:14.720Z,91.71
2022-10-18T04:58:14.719Z,92.32
2022-10-18T04:59:14.688Z,92.42
2022-10-18T05:00:14.688Z,92.22
2022-10-18T05:01:14.695Z,92.02
2022-10-18T05:02:14.650Z,92.12
2022-10-18T05:03:14.638Z,92.32
2022-10-18T05:04:14.628Z,92.32
2022-10-18T05:05:14.620Z,92.02
2022-10-18T05:06:14.627Z,91.82
2022-10-18T05:07:14.588Z,91.51
2022-10-18T05:08:14.577Z,91.61
2022-10-18T05:09:14.568Z,91.51
2022-10-18T05:10:14.560Z,91.10
2022-10-18T05:11:14.548Z,91.10
2022-10-18T05:12:14.530Z,91.10
2022-10-18T05:13:14.517Z,91.30
2022-10-18T05:14:14.489Z,91.20
2022-10-18T05:15:14.488Z,91.20
2022-10-18T05:16:14.467Z,91.41
2022-10-18T05:17:14.456Z,91.61
2022-10-18T05:18:14.445Z,91.61
2022-10-18T05:19:14.420Z,91.51
2022-10-18T05:21:14.394Z,91.20
2022-10-18T05:22:14.388Z,91.26
2022-10-18T05:23:14.369Z,91.47
2022-10-18T05:24:14.357Z,91.77
2022-10-18T05:25:14.365Z,91.47
2022-10-18T05:26:14.327Z,91.06
2022-10-18T05:27:14.311Z,90.96
2022-10-18T05:28:38.656Z,90.86
2022-10-18T05:29:15.491Z,90.66
2022-10-18T05:30:14.294Z,90.35
2022-10-18T05:31:14.267Z,89.94
2022-10-18T05:32:14.247Z,89.64
2022-10-18T05:33:14.239Z,89.23
2022-10-18T05:34:14.225Z,89.03
2022-10-18T05:35:14.217Z,89.13
2022-10-18T05:36:14.203Z,89.23
2022-10-18T05:37:14.176Z,89.23
2022-10-18T05:38:14.178Z,89.13
2022-10-18T05:39:14.157Z,89.13
2022-10-18T05:40:14.168Z,89.43
2022-10-18T05:41:14.127Z,89.33
2022-10-18T05:42:14.125Z,89.43
2022-10-18T05:43:14.107Z,90.25
2022-10-18T05:44:14.087Z,90.96
2022-10-18T05:45:14.076Z,91.56
2022-10-18T05:46:15.669Z,91.97
2022-10-18T05:47:14.037Z,92.18
2022-10-18T05:48:14.059Z,91.97
2022-10-18T05:49:14.027Z,92.18
2022-10-18T05:50:14.035Z,93.09
2022-10-18T05:51:13.998Z,93.60
2022-10-18T05:52:13.976Z,93.60
2022-10-18T05:53:35.109Z,93.80
2022-10-18T05:54:14.947Z,94.00
2022-10-18T05:55:13.965Z,93.80
2022-10-18T05:56:13.927Z,93.60
2022-10-18T05:57:13.916Z,93.70
2022-10-18T05:58:13.908Z,93.86
2022-10-18T05:59:13.887Z,93.70
2022-10-18T06:00:13.885Z,93.40
2022-10-18T06:01:13.856Z,92.99
2022-10-18T06:02:13.894Z,92.48
2022-10-18T06:03:13.826Z,92.07
2022-10-18T06:04:13.846Z,91.67
2022-10-18T06:05:13.807Z,91.36
2022-10-18T06:06:13.789Z,91.06
2022-10-18T06:07:13.766Z,90.86
2022-10-18T06:08:13.765Z,90.75
2022-10-18T06:09:13.938Z,90.51
2022-10-18T06:10:13.735Z,90.55
2022-10-18T06:11:13.717Z,90.81
2022-10-18T06:12:13.709Z,91.63
2022-10-18T06:13:13.699Z,92.13
2022-10-18T06:14:13.696Z,92.33
2022-10-18T06:15:13.664Z,92.64
2022-10-18T06:16:13.728Z,92.94
2022-10-18T06:17:13.637Z,93.05
2022-10-18T06:18:13.644Z,92.84
2022-10-18T06:19:13.624Z,92.54
2022-10-18T06:20:13.604Z,92.54
2022-10-18T06:21:13.585Z,92.44
2022-10-18T06:22:13.584Z,92.54
2022-10-18T06:23:13.664Z,92.44
2022-10-18T06:24:13.575Z,92.44
2022-10-18T06:25:13.534Z,92.33
2022-10-18T06:26:13.524Z,92.24
2022-10-18T06:27:13.503Z,92.13
2022-10-18T06:28:13.504Z,92.13
2022-10-18T06:29:13.587Z,91.93
2022-10-18T06:30:13.463Z,91.73
2022-10-18T06:31:13.443Z,91.32
2022-10-18T06:32:13.435Z,90.92
2022-10-18T06:33:13.424Z,90.71
2022-10-18T06:34:13.428Z,90.92
2022-10-18T06:35:13.401Z,91.22
2022-10-18T06:36:13.415Z,91.42
2022-10-18T06:37:13.373Z,91.73
2022-10-18T06:38:13.358Z,91.63
2022-10-18T06:39:13.424Z,91.63
2022-10-18T06:40:13.333Z,91.48
2022-10-18T06:41:13.358Z,91.78
2022-10-18T06:42:13.310Z,92.19
2022-10-18T06:43:21.116Z,92.09
2022-10-18T06:44:14.976Z,91.28
2022-10-18T06:45:13.258Z,90.67
2022-10-18T06:46:13.246Z,90.67
2022-10-18T06:47:13.234Z,90.97
2022-10-18T06:48:13.264Z,90.97
2022-10-18T06:49:15.313Z,90.97
2022-10-18T06:50:14.206Z,91.78
2022-10-18T06:51:13.175Z,92.60
2022-10-18T06:52:13.172Z,93.30
2022-10-18T06:53:13.153Z,93.37
2022-10-18T06:54:17.912Z,93.16
2022-10-18T06:55:14.129Z,92.96
2022-10-18T06:56:13.115Z,92.96
2022-10-18T06:57:13.102Z,93.16
2022-10-18T06:58:13.093Z,93.37
2022-10-18T06:59:13.082Z,93.77
2022-10-18T07:00:13.063Z,94.07
2022-10-18T07:01:13.085Z,93.97
2022-10-18T07:02:13.731Z,93.77
2022-10-18T07:03:13.014Z,93.57
2022-10-18T07:04:13.042Z,93.57
2022-10-18T07:05:12.995Z,93.46
2022-10-18T07:06:12.992Z,93.57
2022-10-18T07:07:12.961Z,93.97
2022-10-18T07:08:12.972Z,94.07
2022-10-18T07:09:12.952Z,93.97
2022-10-18T07:10:13.261Z,94.18
2022-10-18T07:11:12.903Z,94.27
2022-10-18T07:12:12.928Z,94.68
2022-10-18T07:13:31.626Z,95.19
2022-10-18T07:14:16.344Z,95.39
2022-10-18T07:15:12.860Z,95.29
2022-10-18T07:16:15.697Z,95.29
2022-10-18T07:17:13.831Z,95.09
2022-10-18T07:18:12.822Z,95.04
2022-10-18T07:19:12.814Z,95.04
2022-10-18T07:20:12.791Z,95.04
2022-10-18T07:21:12.775Z,95.14
2022-10-18T07:22:12.761Z,95.25
2022-10-18T07:23:12.743Z,95.04
2022-10-18T07:24:12.751Z,95.04
2022-10-18T07:25:12.731Z,94.90
2022-10-18T07:26:12.770Z,94.79
2022-10-18T07:27:12.692Z,95.30
2022-10-18T07:28:12.688Z,95.30
2022-10-18T07:29:12.683Z,95.40
2022-10-18T07:30:12.671Z,95.50
2022-10-18T07:31:12.642Z,95.26
2022-10-18T07:32:12.632Z,95.06
2022-10-18T07:33:12.619Z,95.06
2022-10-18T07:34:13.381Z,95.01
2022-10-18T07:36:12.578Z,92.36
2022-10-18T07:37:12.560Z,90.91
2022-10-18T07:38:12.562Z,90.10
2022-10-18T07:39:12.533Z,90.50
2022-10-18T07:40:12.550Z,90.50
2022-10-18T07:41:12.527Z,89.90
2022-10-18T07:42:12.502Z,89.90
2022-10-18T07:43:12.531Z,90.00
2022-10-18T07:44:12.478Z,89.70
2022-10-18T07:45:12.452Z,89.79
2022-10-18T07:46:12.451Z,89.50
2022-10-18T07:47:12.430Z,87.88
2022-10-18T07:48:12.430Z,88.39
2022-10-18T07:49:12.409Z,88.89
2022-10-18T07:50:12.393Z,89.09
2022-10-18T07:51:12.371Z,88.83
2022-10-18T07:52:12.391Z,89.03
2022-10-18T07:53:12.361Z,89.03
2022-10-18T07:54:12.340Z,89.23
2022-10-18T07:55:12.324Z,89.43
2022-10-18T07:56:12.329Z,88.43
2022-10-18T07:57:12.328Z,87.92
2022-10-18T07:58:12.289Z,86.41
2022-10-18T07:59:12.269Z,86.21
2022-10-18T08:00:12.260Z,85.90
2022-10-18T08:01:12.287Z,85.34
2022-10-18T08:02:12.231Z,85.24
2022-10-18T08:03:12.220Z,86.15
2022-10-18T08:04:16.188Z,84.12
2022-10-18T08:05:12.180Z,85.84
2022-10-18T08:06:12.184Z,84.83
2022-10-18T08:07:12.158Z,86.55
2022-10-18T08:08:12.161Z,88.17
2022-10-18T08:09:12.131Z,88.57
2022-10-18T08:10:12.130Z,89.78
2022-10-18T08:11:12.100Z,89.68
2022-10-18T08:12:12.100Z,89.68
2022-10-18T08:13:12.088Z,87.66
2022-10-18T08:14:12.077Z,87.56
2022-10-18T08:15:12.052Z,88.06
2022-10-18T08:16:12.051Z,87.15
2022-10-18T08:17:12.021Z,85.64
2022-10-18T08:18:12.039Z,86.45
2022-10-18T08:19:12.001Z,87.76
2022-10-18T08:20:29.478Z,87.66
2022-10-18T08:21:12.968Z,87.76
2022-10-18T08:22:11.959Z,88.17
2022-10-18T08:23:11.952Z,88.06
2022-10-18T08:24:11.934Z,88.17
2022-10-18T08:25:11.921Z,87.96
2022-10-18T08:26:11.910Z,87.56
2022-10-18T08:27:11.898Z,88.17
2022-10-18T08:28:11.907Z,86.45
2022-10-18T08:29:22.512Z,84.93
2022-10-18T08:30:12.875Z,85.24
2022-10-18T08:31:11.847Z,85.14
2022-10-18T08:32:11.843Z,84.93
2022-10-18T08:33:11.851Z,86.04
2022-10-18T08:34:14.861Z,85.84
2022-10-18T08:35:12.780Z,86.35
2022-10-18T08:36:11.784Z,86.55
2022-10-18T08:37:11.753Z,85.88
2022-10-18T08:38:16.405Z,86.29
2022-10-18T08:39:12.730Z,87.10
2022-10-18T08:40:11.719Z,87.40
2022-10-18T08:41:11.703Z,88.51
2022-10-18T08:42:11.689Z,87.40
2022-10-18T08:43:11.678Z,86.69
2022-10-18T08:44:11.659Z,86.99
2022-10-18T08:45:13.019Z,87.19
2022-10-18T08:46:12.651Z,88.31
2022-10-18T08:47:11.776Z,87.90
2022-10-18T08:48:11.628Z,87.90
2022-10-18T08:49:11.590Z,88.92
2022-10-18T08:50:11.579Z,89.92
2022-10-18T08:51:11.568Z,90.12
2022-10-18T08:52:11.579Z,89.92
2022-10-18T08:53:11.556Z,89.76
2022-10-18T08:54:11.525Z,88.75
2022-10-18T08:55:11.511Z,88.45
2022-10-18T08:56:11.499Z,87.24
2022-10-18T08:57:11.487Z,86.63
2022-10-18T08:58:11.487Z,86.93
2022-10-18T08:59:11.505Z,87.54
2022-10-18T09:00:11.540Z,87.34
2022-10-18T09:01:11.450Z,87.34
2022-10-18T09:02:11.419Z,87.44
2022-10-18T09:03:11.508Z,87.54
2022-10-18T09:04:11.389Z,89.16
2022-10-18T09:05:11.390Z,88.65
2022-10-18T09:06:11.361Z,88.15
2022-10-18T09:07:11.349Z,87.95
2022-10-18T09:08:12.211Z,87.95
2022-10-18T09:09:11.343Z,89.76
2022-10-18T09:10:11.414Z,89.97
2022-10-18T09:11:11.318Z,88.45
2022-10-18T09:12:11.310Z,89.10
2022-10-18T09:13:11.279Z,88.25
2022-10-18T09:14:11.260Z,88.59
2022-10-18T09:15:11.260Z,88.70
2022-10-18T09:16:11.231Z,89.30
2022-10-18T09:17:15.874Z,89.10
2022-10-18T09:18:12.211Z,89.30
2022-10-18T09:19:11.200Z,88.59
2022-10-18T09:20:11.191Z,88.70
2022-10-18T09:21:11.181Z,88.29
2022-10-18T09:22:11.168Z,88.79
2022-10-18T09:23:11.139Z,88.90
2022-10-18T09:24:11.128Z,88.90
2022-10-18T09:25:11.111Z,89.81
2022-10-18T09:26:11.108Z,89.20
2022-10-18T09:27:11.091Z,89.81
2022-10-18T09:28:11.069Z,90.52
2022-10-18T09:29:11.149Z,90.72
2022-10-18T09:30:11.068Z,91.12
2022-10-18T09:31:11.037Z,89.61
2022-10-18T09:32:11.078Z,89.50
2022-10-18T09:33:11.009Z,90.82
2022-10-18T09:34:10.990Z,91.18
2022-10-18T09:35:10.975Z,91.78
2022-10-18T09:36:10.986Z,91.49
2022-10-18T09:37:10.969Z,91.28
2022-10-18T09:38:10.952Z,90.78
2022-10-18T09:39:10.929Z,89.56
2022-10-18T09:40:13.005Z,89.26
2022-10-18T09:41:10.919Z,89.26
2022-10-18T09:42:10.895Z,89.66
2022-10-18T09:43:10.879Z,90.07
2022-10-18T09:44:10.848Z,90.37
2022-10-18T09:45:10.850Z,90.17
2022-10-18T09:46:10.850Z,90.17
2022-10-18T09:47:14.546Z,90.27
2022-10-18T09:48:11.888Z,88.75
2022-10-18T09:49:13.027Z,88.04
2022-10-18T09:50:10.791Z,88.55
2022-10-18T09:51:10.769Z,90.27
2022-10-18T09:52:10.775Z,90.37
2022-10-18T09:53:10.753Z,89.87
2022-10-18T09:54:10.719Z,89.46
2022-10-18T09:55:10.718Z,90.37
2022-10-18T09:56:10.694Z,89.87
2022-10-18T09:57:10.708Z,88.35
2022-10-18T09:58:10.680Z,89.16
2022-10-18T09:59:10.659Z,90.07
2022-10-18T10:00:10.660Z,89.87
2022-10-18T10:01:10.639Z,89.26
2022-10-18T10:02:10.658Z,89.76
2022-10-18T10:03:10.619Z,89.06
2022-10-18T10:04:10.587Z,88.55
2022-10-18T10:06:10.571Z,88.04
2022-10-18T10:07:10.558Z,88.04
2022-10-18T10:08:10.529Z,86.93
2022-10-18T10:09:10.529Z,87.74
2022-10-18T10:10:10.553Z,86.93
2022-10-18T10:11:10.512Z,87.54
2022-10-18T10:12:10.517Z,87.04
2022-10-18T10:13:10.468Z,88.45
2022-10-18T10:14:10.498Z,88.65
2022-10-18T10:15:10.448Z,87.64
2022-10-18T10:16:10.432Z,87.95
2022-10-18T10:17:10.428Z,89.16
2022-10-18T10:18:10.426Z,88.45
2022-10-18T10:19:10.399Z,88.51
2022-10-18T10:20:10.376Z,87.19
2022-10-18T10:21:10.390Z,88.21
2022-10-18T10:22:10.388Z,89.52
2022-10-18T10:23:10.377Z,88.31
2022-10-18T10:24:10.351Z,87.81
2022-10-18T10:25:10.337Z,88.41
2022-10-18T10:26:10.304Z,88.31
2022-10-18T10:27:10.303Z,88.41
2022-10-18T10:28:10.274Z,87.70
2022-10-18T10:29:17.411Z,86.90
2022-10-18T10:30:11.251Z,87.30
2022-10-18T10:31:10.248Z,86.69
2022-10-18T10:32:10.210Z,85.99
2022-10-18T10:33:10.208Z,86.35
2022-10-18T10:34:10.208Z,86.95
2022-10-18T10:35:18.291Z,85.94
2022-10-18T10:36:11.179Z,86.95
2022-10-18T10:37:10.174Z,87.46
2022-10-18T10:38:10.141Z,88.26
2022-10-18T10:39:10.133Z,87.96
2022-10-18T10:40:18.889Z,87.86
2022-10-18T10:41:11.119Z,88.06
2022-10-18T10:42:11.503Z,86.95
2022-10-18T10:43:19.768Z,85.94
2022-10-18T10:44:11.058Z,87.26
2022-10-18T10:45:10.079Z,87.96
2022-10-18T10:46:10.038Z,88.06
2022-10-18T10:47:10.020Z,88.57
2022-10-18T10:48:10.034Z,88.57
2022-10-18T10:49:39.591Z,87.76
2022-10-18T10:50:11.001Z,87.36
2022-10-18T10:51:09.979Z,87.56
2022-10-18T10:52:26.281Z,86.15
2022-10-18T10:53:10.964Z,85.03
2022-10-18T10:54:09.938Z,85.54
2022-10-18T10:55:30.893Z,86.35
2022-10-18T10:56:15.213Z,86.25
2022-10-18T10:57:10.890Z,87.15
2022-10-18T10:58:09.876Z,86.25
2022-10-18T10:59:09.954Z,85.64
2022-10-18T11:00:09.849Z,86.35
2022-10-18T11:01:11.293Z,86.75
2022-10-18T11:02:09.811Z,86.15
2022-10-18T11:03:27.409Z,86.04
2022-10-18T11:04:10.884Z,85.44
2022-10-18T11:05:09.791Z,87.66
2022-10-18T11:06:09.759Z,87.76
2022-10-18T11:07:09.766Z,88.37
2022-10-18T11:08:09.736Z,88.06
2022-10-18T11:09:09.728Z,87.36
2022-10-18T11:10:09.710Z,87.05
2022-10-18T11:11:09.700Z,86.45
2022-10-18T11:12:09.681Z,85.34
2022-10-18T11:13:09.671Z,85.34
2022-10-18T11:14:26.676Z,85.74
2022-10-18T11:15:10.660Z,85.44
2022-10-18T11:16:09.638Z,85.44
2022-10-18T11:17:09.619Z,84.12
2022-10-18T11:18:09.606Z,84.83
2022-10-18T11:19:09.588Z,85.24
2022-10-18T11:20:09.581Z,86.75
2022-10-18T11:21:09.561Z,87.66
2022-10-18T11:22:09.550Z,87.26
2022-10-18T11:23:09.539Z,86.95
2022-10-18T11:24:09.516Z,87.46
2022-10-18T11:25:09.519Z,88.32
2022-10-18T11:26:09.488Z,89.23
2022-10-18T11:27:09.489Z,88.83
2022-10-18T11:28:09.474Z,88.26
2022-10-18T11:29:09.455Z,88.67
2022-10-18T11:30:09.442Z,89.28
2022-10-18T11:31:09.443Z,89.37
2022-10-18T11:32:09.408Z,88.67
2022-10-18T11:33:09.484Z,88.47
2022-10-18T11:34:10.389Z,89.17
2022-10-18T11:35:09.415Z,87.36
2022-10-18T11:36:09.348Z,86.25
2022-10-18T11:37:27.319Z,84.93
2022-10-18T11:38:10.339Z,85.34
2022-10-18T11:39:09.324Z,86.04
2022-10-18T11:40:09.310Z,84.43
2022-10-18T11:41:09.289Z,85.44
2022-10-18T11:42:09.277Z,86.85
2022-10-18T11:43:09.286Z,88.17
2022-10-18T11:44:09.372Z,88.97
2022-10-18T11:45:09.249Z,89.28
2022-10-18T11:46:09.229Z,89.17
2022-10-18T11:47:09.218Z,89.17
2022-10-18T11:48:09.197Z,88.77
2022-10-18T11:49:09.181Z,86.95
2022-10-18T11:50:09.204Z,85.94
2022-10-18T11:51:09.171Z,85.74
2022-10-18T11:52:09.573Z,86.25
2022-10-18T11:53:09.130Z,86.45
2022-10-18T11:54:09.128Z,86.35
2022-10-18T11:55:09.110Z,86.95
2022-10-18T11:56:09.091Z,85.84
2022-10-18T11:57:09.102Z,87.15
2022-10-18T11:58:09.060Z,87.26
2022-10-18T11:59:09.060Z,87.36
2022-10-18T12:00:09.055Z,86.85
2022-10-18T12:01:09.052Z,85.94
2022-10-18T12:02:09.138Z,86.95
2022-10-18T12:03:09.045Z,87.66
2022-10-18T12:04:08.996Z,87.76
2022-10-18T12:05:23.092Z,87.52
2022-10-18T12:06:09.951Z,87.21
2022-10-18T12:07:08.968Z,87.32
2022-10-18T12:08:08.939Z,87.62
2022-10-18T12:09:08.933Z,88.73
2022-10-18T12:10:08.905Z,88.93
2022-10-18T12:11:08.891Z,87.62
2022-10-18T12:12:08.908Z,86.10
2022-10-18T12:13:08.875Z,85.30
2022-10-18T12:14:08.864Z,85.40
2022-10-18T12:15:08.882Z,84.39
2022-10-18T12:16:08.829Z,83.78
2022-10-18T12:17:39.292Z,85.40
2022-10-18T12:18:09.804Z,86.10
2022-10-18T12:19:08.809Z,85.30
2022-10-18T12:20:08.895Z,85.30
2022-10-18T12:21:08.768Z,85.19
2022-10-18T12:22:08.742Z,84.99
2022-10-18T12:23:08.758Z,86.00
2022-10-18T12:24:08.720Z,85.60
2022-10-18T12:25:08.701Z,85.90
2022-10-18T12:26:08.689Z,85.90
2022-10-18T12:27:08.681Z,86.41
2022-10-18T12:28:08.659Z,86.30
2022-10-18T12:29:08.777Z,87.52
2022-10-18T12:30:08.722Z,88.83
2022-10-18T12:31:08.623Z,88.73
2022-10-18T12:32:08.608Z,88.63
2022-10-18T12:33:27.108Z,88.73
2022-10-18T12:34:09.601Z,89.54
2022-10-18T12:35:08.570Z,87.82
2022-10-18T12:36:08.556Z,87.32
2022-10-18T12:37:08.563Z,85.03
2022-10-18T12:38:08.521Z,84.03
2022-10-18T12:39:08.521Z,83.42
2022-10-18T12:40:12.485Z,85.03
2022-10-18T12:41:09.491Z,86.45
2022-10-18T12:42:08.472Z,86.35
2022-10-18T12:43:08.461Z,87.86
2022-10-18T12:44:08.450Z,88.97
2022-10-18T12:45:08.432Z,89.37
2022-10-18T12:46:13.280Z,89.78
2022-10-18T12:47:09.403Z,89.07
2022-10-18T12:48:08.392Z,89.48
2022-10-18T12:49:08.482Z,89.28
2022-10-18T12:50:08.362Z,89.88
2022-10-18T12:51:08.370Z,89.98
2022-10-18T12:52:08.338Z,89.58
2022-10-18T12:53:08.324Z,90.28
2022-10-18T12:54:08.470Z,90.69
2022-10-18T12:55:08.300Z,91.39